createdAt,value
2019-02-14T00:01:26.068Z,84.80
2019-02-14T00:03:55.303Z,84.90
2019-02-14T00:06:24.857Z,85.10
2019-02-14T00:08:54.104Z,85.10
2019-02-14T00:11:23.319Z,84.70
2019-02-14T00:13:52.544Z,84.80
2019-02-14T00:16:21.852Z,84.80
2019-02-14T00:18:51.087Z,84.70
2019-02-14T00:21:20.312Z,84.60
2019-02-14T00:23:49.894Z,84.60
2019-02-14T00:26:19.088Z,84.10
2019-02-14T00:28:48.311Z,84.00
2019-02-14T00:31:17.592Z,84.10
2019-02-14T00:33:47.008Z,84.10
2019-02-14T00:36:16.231Z,84.10
2019-02-14T00:38:46.596Z,84.10
2019-02-14T00:41:15.796Z,84.00
2019-02-14T00:43:45.030Z,83.80
2019-02-14T00:46:15.190Z,83.50
2019-02-14T00:48:44.440Z,83.40
2019-02-14T00:51:13.686Z,83.60
2019-02-14T00:53:42.980Z,83.70
2019-02-14T00:56:12.187Z,83.70
2019-02-14T00:58:41.506Z,83.70
2019-02-14T01:01:10.821Z,83.90
2019-02-14T01:03:40.040Z,83.90
2019-02-14T01:06:09.289Z,83.70
2019-02-14T01:08:38.573Z,83.90
2019-02-14T01:11:07.800Z,83.90
2019-02-14T01:13:37.023Z,84.10
2019-02-14T01:16:06.337Z,84.10
2019-02-14T01:18:35.624Z,84.10
2019-02-14T01:21:06.429Z,84.30
2019-02-14T01:23:35.662Z,84.30
2019-02-14T01:26:05.072Z,84.60
2019-02-14T01:28:34.347Z,84.70
2019-02-14T01:31:03.815Z,84.70
2019-02-14T01:33:33.524Z,84.70
2019-02-14T01:36:02.943Z,84.70
2019-02-14T01:38:32.708Z,84.80
2019-02-14T01:41:02.041Z,85.00
2019-02-14T01:43:31.512Z,85.10
2019-02-14T01:46:00.748Z,85.10
2019-02-14T01:48:29.950Z,85.10
2019-02-14T01:50:59.553Z,85.10
2019-02-14T01:53:28.823Z,85.30
2019-02-14T01:55:58.051Z,85.50
2019-02-14T01:58:27.254Z,85.70
2019-02-14T02:00:56.543Z,85.80
2019-02-14T02:03:25.756Z,85.70
2019-02-14T02:05:55.069Z,85.70
2019-02-14T02:08:24.483Z,85.80
2019-02-14T02:10:54.093Z,85.70
2019-02-14T02:13:23.314Z,85.60
2019-02-14T02:15:52.535Z,85.40
2019-02-14T02:18:22.296Z,85.30
2019-02-14T02:20:51.509Z,85.30
2019-02-14T02:23:20.817Z,85.40
2019-02-14T02:25:50.027Z,85.20
2019-02-14T02:28:19.242Z,85.20
2019-02-14T02:30:49.590Z,85.40
2019-02-14T02:33:18.800Z,85.40
2019-02-14T02:35:47.972Z,85.10
2019-02-14T02:38:17.161Z,85.10
2019-02-14T02:40:46.337Z,85.10
2019-02-14T02:43:15.541Z,85.20
2019-02-14T02:45:44.710Z,85.30
2019-02-14T02:48:13.909Z,85.30
2019-02-14T02:50:43.099Z,85.20
2019-02-14T02:53:12.283Z,85.40
2019-02-14T02:55:41.761Z,85.40
2019-02-14T02:58:10.957Z,85.50
2019-02-14T03:00:40.128Z,85.40
2019-02-14T03:03:09.329Z,85.50
2019-02-14T03:05:38.854Z,85.30
2019-02-14T03:08:08.086Z,85.40
2019-02-14T03:10:37.306Z,85.60
2019-02-14T03:13:06.479Z,85.50
2019-02-14T03:15:35.671Z,85.50
2019-02-14T03:18:04.837Z,85.50
2019-02-14T03:20:34.021Z,85.40
2019-02-14T03:23:03.195Z,85.20
2019-02-14T03:25:32.380Z,85.20
2019-02-14T03:28:01.564Z,85.20
2019-02-14T03:30:30.762Z,85.40
2019-02-14T03:32:59.918Z,85.60
2019-02-14T03:35:29.101Z,85.70
2019-02-14T03:37:58.265Z,85.90
2019-02-14T03:40:27.512Z,86.10
2019-02-14T03:42:56.755Z,86.20
2019-02-14T03:45:25.928Z,86.10
2019-02-14T03:47:56.161Z,86.00
2019-02-14T03:50:25.376Z,85.90
2019-02-14T03:52:54.559Z,85.90
2019-02-14T03:55:24.059Z,85.90
2019-02-14T03:57:53.232Z,86.00
2019-02-14T04:00:22.413Z,86.10
2019-02-14T04:02:51.676Z,86.10
2019-02-14T04:05:20.844Z,86.20
2019-02-14T04:07:50.026Z,86.30
2019-02-14T04:10:19.198Z,86.30
2019-02-14T04:12:48.383Z,86.40
2019-02-14T04:15:18.578Z,86.40
2019-02-14T04:17:47.749Z,86.40
2019-02-14T04:20:16.940Z,86.60
2019-02-14T04:22:46.104Z,86.70
2019-02-14T04:25:15.289Z,86.80
2019-02-14T04:27:44.476Z,87.00
2019-02-14T04:30:14.395Z,87.20
2019-02-14T04:32:43.895Z,87.30
2019-02-14T04:35:13.087Z,87.30
2019-02-14T04:37:42.265Z,87.30
2019-02-14T04:40:12.986Z,87.40
2019-02-14T04:42:42.165Z,87.50
2019-02-14T04:45:12.767Z,87.30
2019-02-14T04:47:43.417Z,87.40
2019-02-14T04:50:12.572Z,87.30
2019-02-14T04:52:41.763Z,87.20
2019-02-14T04:55:11.459Z,87.20
2019-02-14T04:57:40.641Z,87.20
2019-02-14T05:00:14.388Z,87.20
2019-02-14T05:02:44.567Z,87.30
2019-02-14T05:05:13.728Z,87.20
2019-02-14T05:07:42.914Z,87.10
2019-02-14T05:10:12.639Z,87.20
2019-02-14T05:12:41.824Z,87.40
2019-02-14T05:15:11.636Z,87.70
2019-02-14T05:17:40.829Z,87.70
2019-02-14T05:20:11.154Z,87.80
2019-02-14T05:22:40.320Z,88.00
2019-02-14T05:25:09.955Z,88.10
2019-02-14T05:27:39.137Z,88.30
2019-02-14T05:30:14.035Z,88.30
2019-02-14T05:32:43.219Z,88.30
2019-02-14T05:35:12.474Z,88.40
2019-02-14T05:37:41.649Z,88.30
2019-02-14T05:40:11.491Z,88.60
2019-02-14T05:42:40.646Z,88.60
2019-02-14T05:45:12.428Z,88.70
2019-02-14T05:47:41.592Z,88.60
2019-02-14T05:50:12.421Z,88.70
2019-02-14T05:52:41.606Z,88.70
2019-02-14T05:55:12.037Z,88.60
2019-02-14T05:57:41.196Z,88.30
2019-02-14T06:00:15.822Z,88.20
2019-02-14T06:02:45.014Z,88.20
2019-02-14T06:05:14.182Z,88.30
2019-02-14T06:07:43.364Z,88.50
2019-02-14T06:10:12.895Z,88.60
2019-02-14T06:12:42.088Z,88.60
2019-02-14T06:15:12.303Z,88.60
2019-02-14T06:17:41.810Z,88.70
2019-02-14T06:20:11.925Z,88.70
2019-02-14T06:22:41.126Z,88.80
2019-02-14T06:25:12.546Z,88.70
2019-02-14T06:27:41.774Z,88.80
2019-02-14T06:30:15.477Z,89.10
2019-02-14T06:32:44.660Z,89.40
2019-02-14T06:35:13.852Z,89.60
2019-02-14T06:37:43.056Z,89.70
2019-02-14T06:40:13.392Z,89.90
2019-02-14T06:42:43.528Z,90.10
2019-02-14T06:45:14.658Z,90.10
2019-02-14T06:47:43.820Z,90.00
2019-02-14T06:50:13.026Z,89.70
2019-02-14T06:52:42.289Z,89.70
2019-02-14T06:55:11.467Z,89.70
2019-02-14T06:57:40.914Z,89.80
2019-02-14T07:00:17.620Z,89.80
2019-02-14T07:02:46.784Z,89.80
2019-02-14T07:05:15.972Z,89.60
2019-02-14T07:07:45.187Z,89.30
2019-02-14T07:10:14.420Z,89.20
2019-02-14T07:12:43.587Z,89.10
2019-02-14T07:15:14.664Z,89.10
2019-02-14T07:17:43.845Z,88.90
2019-02-14T07:20:16.917Z,88.80
2019-02-14T07:22:46.104Z,88.60
2019-02-14T07:25:16.297Z,88.60
2019-02-14T07:27:45.472Z,88.50
2019-02-14T07:30:23.620Z,88.30
2019-02-14T07:32:52.788Z,88.10
2019-02-14T07:35:22.043Z,88.00
2019-02-14T07:37:51.234Z,87.80
2019-02-14T07:40:20.409Z,87.70
2019-02-14T07:42:49.601Z,87.40
2019-02-14T07:45:19.004Z,87.40
2019-02-14T07:47:48.180Z,87.60
2019-02-14T07:50:17.360Z,87.80
2019-02-14T07:52:46.545Z,88.10
2019-02-14T07:55:15.806Z,88.10
2019-02-14T07:57:45.076Z,88.20
2019-02-14T08:00:18.483Z,88.10
2019-02-14T08:02:47.639Z,88.10
2019-02-14T08:05:17.105Z,88.00
2019-02-14T08:07:46.619Z,88.00
2019-02-14T08:10:16.870Z,87.90
2019-02-14T08:12:46.061Z,87.90
2019-02-14T08:15:15.242Z,87.90
2019-02-14T08:17:44.447Z,88.00
2019-02-14T08:20:19.717Z,88.10
2019-02-14T08:22:48.881Z,88.10
2019-02-14T08:25:18.060Z,87.80
2019-02-14T08:27:47.586Z,87.60
2019-02-14T08:30:18.089Z,86.90
2019-02-14T08:32:47.272Z,86.60
2019-02-14T08:35:16.444Z,86.30
2019-02-14T08:37:46.217Z,86.10
2019-02-14T08:40:27.324Z,86.10
2019-02-14T08:42:58.453Z,85.90
2019-02-14T08:45:27.367Z,85.70
2019-02-14T08:47:56.542Z,85.60
2019-02-14T08:50:25.727Z,85.40
2019-02-14T08:52:54.909Z,84.90
2019-02-14T08:55:24.069Z,84.80
2019-02-14T08:57:53.260Z,84.60
2019-02-14T09:00:22.429Z,84.20
2019-02-14T09:02:51.617Z,83.90
2019-02-14T09:05:20.813Z,83.70
2019-02-14T09:07:54.709Z,83.60
2019-02-14T09:10:20.981Z,83.20
2019-02-14T09:12:50.157Z,82.90
2019-02-14T09:15:19.354Z,82.20
2019-02-14T09:17:48.525Z,82.20
2019-02-14T09:20:21.728Z,82.00
2019-02-14T09:22:50.874Z,82.10
2019-02-14T09:25:20.063Z,82.30
2019-02-14T09:27:49.225Z,82.20
2019-02-14T09:30:18.491Z,82.50
2019-02-14T09:32:47.724Z,82.30
2019-02-14T09:35:16.908Z,81.90
2019-02-14T09:37:46.096Z,82.00
2019-02-14T09:40:19.461Z,81.90
2019-02-14T09:42:48.645Z,81.70
2019-02-14T09:45:17.818Z,81.10
2019-02-14T09:47:47.013Z,80.60
2019-02-14T09:50:16.208Z,80.20
2019-02-14T09:52:45.388Z,80.30
2019-02-14T09:55:14.843Z,80.50
2019-02-14T09:57:44.073Z,80.30
2019-02-14T10:00:17.372Z,80.10
2019-02-14T10:02:46.625Z,80.10
2019-02-14T10:05:15.934Z,79.60
2019-02-14T10:07:45.125Z,79.50
2019-02-14T10:10:17.468Z,78.90
2019-02-14T10:12:46.664Z,78.40
2019-02-14T10:15:15.896Z,77.20
2019-02-14T10:17:45.065Z,77.00
2019-02-14T10:20:18.144Z,77.10
2019-02-14T10:22:47.629Z,76.80
2019-02-14T10:25:16.798Z,76.10
2019-02-14T10:27:45.995Z,76.20
2019-02-14T10:30:17.992Z,75.20
2019-02-14T10:32:47.198Z,75.40
2019-02-14T10:35:16.389Z,75.30
2019-02-14T10:37:45.586Z,74.80
2019-02-14T10:40:17.999Z,74.30
2019-02-14T10:42:47.172Z,74.00
2019-02-14T10:45:19.552Z,73.90
2019-02-14T10:47:48.812Z,73.30
2019-02-14T10:50:18.337Z,72.80
2019-02-14T10:52:47.531Z,72.20
2019-02-14T10:55:16.880Z,71.30
2019-02-14T10:57:46.068Z,71.40
2019-02-14T11:00:20.766Z,71.10
2019-02-14T11:02:50.012Z,71.00
2019-02-14T11:05:19.555Z,71.20
2019-02-14T11:07:48.814Z,71.50
2019-02-14T11:10:18.074Z,72.10
2019-02-14T11:12:47.280Z,72.60
2019-02-14T11:15:20.868Z,72.60
2019-02-14T11:17:50.061Z,72.40
2019-02-14T11:20:19.248Z,72.80
2019-02-14T11:22:49.127Z,72.90
2019-02-14T11:25:24.921Z,72.80
2019-02-14T11:27:54.097Z,72.80
2019-02-14T11:30:23.285Z,72.90
2019-02-14T11:32:52.454Z,73.00
2019-02-14T11:35:21.665Z,73.00
2019-02-14T11:37:50.828Z,72.90
2019-02-14T11:40:20.019Z,72.60
2019-02-14T11:42:49.176Z,72.40
2019-02-14T11:45:20.217Z,71.80
2019-02-14T11:47:49.452Z,71.40
2019-02-14T11:50:18.649Z,71.40
2019-02-14T11:52:47.838Z,71.10
2019-02-14T11:55:17.058Z,70.80
2019-02-14T11:57:46.230Z,69.80
2019-02-14T12:00:24.220Z,69.70
2019-02-14T12:02:55.998Z,69.70
2019-02-14T12:05:24.286Z,69.30
2019-02-14T12:07:53.486Z,69.60
2019-02-14T12:10:22.926Z,69.70
2019-02-14T12:12:52.104Z,69.20
2019-02-14T12:15:23.257Z,68.80
2019-02-14T12:17:52.198Z,67.90
2019-02-14T12:20:21.393Z,67.10
2019-02-14T12:22:50.584Z,66.90
2019-02-14T12:25:25.451Z,66.20
2019-02-14T12:27:54.650Z,66.50
2019-02-14T12:30:23.841Z,66.10
2019-02-14T12:32:53.024Z,65.20
2019-02-14T12:35:22.275Z,64.40
2019-02-14T12:37:51.537Z,64.70
2019-02-14T12:40:21.133Z,64.80
2019-02-14T12:42:50.344Z,64.60
2019-02-14T12:45:24.234Z,63.80
2019-02-14T12:47:52.773Z,64.40
2019-02-14T12:50:21.932Z,63.60
2019-02-14T12:52:51.401Z,63.60
2019-02-14T12:55:20.601Z,63.80
2019-02-14T12:57:50.422Z,63.30
2019-02-14T13:00:21.776Z,63.40
2019-02-14T13:02:50.972Z,62.80
2019-02-14T13:05:20.332Z,62.30
2019-02-14T13:07:49.528Z,62.20
2019-02-14T13:10:19.164Z,62.20
2019-02-14T13:12:48.368Z,61.50
2019-02-14T13:15:27.611Z,62.00
2019-02-14T13:17:56.792Z,61.10
2019-02-14T13:20:26.036Z,60.90
2019-02-14T13:22:55.220Z,61.40
2019-02-14T13:25:24.408Z,61.50
2019-02-14T13:27:53.589Z,61.40
2019-02-14T13:30:25.044Z,61.60
2019-02-14T13:32:54.242Z,61.80
2019-02-14T13:35:23.503Z,62.50
2019-02-14T13:37:52.753Z,62.60
2019-02-14T13:40:21.932Z,62.90
2019-02-14T13:42:51.384Z,62.70
2019-02-14T13:45:24.406Z,63.10
2019-02-14T13:47:53.854Z,63.50
2019-02-14T13:50:23.024Z,64.00
2019-02-14T13:52:52.216Z,64.70
2019-02-14T13:55:21.468Z,65.00
2019-02-14T13:57:50.844Z,65.30
2019-02-14T14:00:26.620Z,65.70
2019-02-14T14:02:55.845Z,66.00
2019-02-14T14:05:25.021Z,66.20
2019-02-14T14:07:54.214Z,66.20
2019-02-14T14:10:24.478Z,66.10
2019-02-14T14:12:53.660Z,66.30
2019-02-14T14:15:22.848Z,66.10
2019-02-14T14:17:53.013Z,66.20
2019-02-14T14:20:22.207Z,66.60
2019-02-14T14:22:51.656Z,66.90
2019-02-14T14:25:20.855Z,67.30
2019-02-14T14:27:50.036Z,67.10
2019-02-14T14:30:19.224Z,67.00
2019-02-14T14:32:48.424Z,67.20
2019-02-14T14:35:17.857Z,67.50
2019-02-14T14:37:47.083Z,67.70
2019-02-14T14:40:20.301Z,68.00
2019-02-14T14:42:51.107Z,68.00
2019-02-14T14:45:31.165Z,67.50
2019-02-14T14:48:00.374Z,66.80
2019-02-14T14:50:29.556Z,66.10
2019-02-14T14:52:59.045Z,66.20
2019-02-14T14:55:28.246Z,65.70
2019-02-14T14:57:57.431Z,66.10
2019-02-14T15:00:26.636Z,66.10
2019-02-14T15:02:55.834Z,66.10
2019-02-14T15:05:25.040Z,65.90
2019-02-14T15:07:54.213Z,66.10
2019-02-14T15:10:23.647Z,66.10
2019-02-14T15:12:52.845Z,65.80
2019-02-14T15:15:22.041Z,65.60
2019-02-14T15:17:51.551Z,66.10
2019-02-14T15:20:20.734Z,66.30
2019-02-14T15:22:49.938Z,66.50
2019-02-14T15:25:19.101Z,66.40
2019-02-14T15:27:48.292Z,66.40
2019-02-14T15:30:17.481Z,66.30
2019-02-14T15:32:46.661Z,66.30
2019-02-14T15:35:15.853Z,66.30
2019-02-14T15:37:47.155Z,66.40
2019-02-14T15:40:15.944Z,66.60
2019-02-14T15:42:45.119Z,66.90
2019-02-14T15:45:15.287Z,67.30
2019-02-14T15:47:44.461Z,67.40
2019-02-14T15:50:13.657Z,67.80
2019-02-14T15:52:42.868Z,68.30
2019-02-14T15:55:12.120Z,68.90
2019-02-14T15:57:42.922Z,68.90
2019-02-14T16:00:13.345Z,68.60
2019-02-14T16:02:42.522Z,68.70
2019-02-14T16:05:11.782Z,68.60
2019-02-14T16:07:41.488Z,68.50
2019-02-14T16:10:18.081Z,68.60
2019-02-14T16:12:44.005Z,68.80
2019-02-14T16:15:13.589Z,68.90
2019-02-14T16:17:42.796Z,69.10
2019-02-14T16:20:12.137Z,69.40
2019-02-14T16:22:42.427Z,69.60
2019-02-14T16:25:12.200Z,69.70
2019-02-14T16:27:41.385Z,69.80
2019-02-14T16:30:11.325Z,70.10
2019-02-14T16:32:40.520Z,70.40
2019-02-14T16:35:09.692Z,70.70
2019-02-14T16:37:38.967Z,71.10
2019-02-14T16:40:09.573Z,71.40
2019-02-14T16:42:38.770Z,71.50
2019-02-14T16:45:08.876Z,71.80
2019-02-14T16:47:38.059Z,72.30
2019-02-14T16:50:09.085Z,72.30
2019-02-14T16:52:39.240Z,72.40
2019-02-14T16:55:08.425Z,72.50
2019-02-14T16:57:38.980Z,73.00
2019-02-14T17:00:11.158Z,73.50
2019-02-14T17:02:40.342Z,73.80
2019-02-14T17:05:09.583Z,74.10
2019-02-14T17:07:39.171Z,74.50
2019-02-14T17:10:11.182Z,74.90
2019-02-14T17:12:40.389Z,75.00
2019-02-14T17:15:10.545Z,75.20
2019-02-14T17:17:40.056Z,75.50
2019-02-14T17:20:11.227Z,75.70
2019-02-14T17:22:40.410Z,75.80
2019-02-14T17:25:09.697Z,76.10
2019-02-14T17:27:38.874Z,76.20
2019-02-14T17:30:09.938Z,76.70
2019-02-14T17:32:39.124Z,77.00
2019-02-14T17:35:08.331Z,76.70
2019-02-14T17:37:37.525Z,76.80
2019-02-14T17:40:09.086Z,77.50
2019-02-14T17:42:38.272Z,78.10
2019-02-14T17:45:09.395Z,78.40
2019-02-14T17:47:38.585Z,78.60
2019-02-14T17:50:09.227Z,78.50
2019-02-14T17:52:38.678Z,78.20
2019-02-14T17:55:09.853Z,78.20
2019-02-14T17:57:39.100Z,78.30
2019-02-14T18:00:12.791Z,78.30
2019-02-14T18:02:41.987Z,78.90
2019-02-14T18:05:11.183Z,79.00
2019-02-14T18:07:40.368Z,78.80
2019-02-14T18:10:12.180Z,78.70
2019-02-14T18:12:41.382Z,78.60
2019-02-14T18:15:14.541Z,78.50
2019-02-14T18:17:43.715Z,78.30
2019-02-14T18:20:12.981Z,78.20
2019-02-14T18:22:42.180Z,78.30
2019-02-14T18:25:12.205Z,78.10
2019-02-14T18:27:41.729Z,78.40
2019-02-14T18:30:12.303Z,78.70
2019-02-14T18:32:41.473Z,79.00
2019-02-14T18:35:11.984Z,79.20
2019-02-14T18:37:41.189Z,79.20
2019-02-14T18:40:11.297Z,79.20
2019-02-14T18:42:43.236Z,79.20
2019-02-14T18:45:13.665Z,79.50
2019-02-14T18:47:42.857Z,79.60
2019-02-14T18:50:13.074Z,79.60
2019-02-14T18:52:42.266Z,79.20
2019-02-14T18:55:12.016Z,79.30
2019-02-14T18:57:41.214Z,79.30
2019-02-14T19:00:13.125Z,79.30
2019-02-14T19:02:42.402Z,79.30
2019-02-14T19:05:12.111Z,79.00
2019-02-14T19:07:42.615Z,78.40
2019-02-14T19:10:17.147Z,78.00
2019-02-14T19:12:46.306Z,77.90
2019-02-14T19:15:15.499Z,78.10
2019-02-14T19:17:44.674Z,78.40
2019-02-14T19:20:14.377Z,78.80
2019-02-14T19:22:43.561Z,79.00
2019-02-14T19:25:12.781Z,79.00
2019-02-14T19:27:42.246Z,78.90
2019-02-14T19:30:12.564Z,79.00
2019-02-14T19:32:42.072Z,79.00
2019-02-14T19:35:11.247Z,78.70
2019-02-14T19:37:40.466Z,78.50
2019-02-14T19:40:09.981Z,78.70
2019-02-14T19:42:39.350Z,78.50
2019-02-14T19:45:10.028Z,78.10
2019-02-14T19:47:39.207Z,78.00
2019-02-14T19:50:12.890Z,78.00
2019-02-14T19:52:44.230Z,77.70
2019-02-14T19:55:13.490Z,77.90
2019-02-14T19:57:42.689Z,78.10
2019-02-14T20:00:14.290Z,77.90
2019-02-14T20:02:43.527Z,77.80
2019-02-14T20:05:12.725Z,77.80
2019-02-14T20:07:41.899Z,77.30
2019-02-14T20:10:14.009Z,77.40
2019-02-14T20:12:43.168Z,77.70
2019-02-14T20:15:15.391Z,77.40
2019-02-14T20:17:44.730Z,77.40
2019-02-14T20:20:14.214Z,77.40
2019-02-14T20:22:44.361Z,77.50
2019-02-14T20:25:26.399Z,77.60
2019-02-14T20:27:55.618Z,77.60
2019-02-14T20:30:24.802Z,77.50
2019-02-14T20:32:53.971Z,77.70
2019-02-14T20:35:23.161Z,77.70
2019-02-14T20:37:52.383Z,77.70
2019-02-14T20:40:21.669Z,77.70
2019-02-14T20:42:50.855Z,77.70
2019-02-14T20:45:20.022Z,77.50
2019-02-14T20:47:50.310Z,77.60
2019-02-14T20:50:19.549Z,77.50
2019-02-14T20:52:48.727Z,77.60
2019-02-14T20:55:21.184Z,77.60
2019-02-14T20:57:50.361Z,77.60
2019-02-14T21:00:30.301Z,77.40
2019-02-14T21:02:59.564Z,77.30
2019-02-14T21:05:29.254Z,77.10
2019-02-14T21:07:58.419Z,76.90
2019-02-14T21:10:27.655Z,76.60
2019-02-14T21:12:56.822Z,76.60
2019-02-14T21:15:26.005Z,76.70
2019-02-14T21:17:55.178Z,76.60
2019-02-14T21:20:24.374Z,76.60
2019-02-14T21:22:53.544Z,76.20
2019-02-14T21:25:23.980Z,76.50
2019-02-14T21:27:53.781Z,76.90
2019-02-14T21:30:22.949Z,77.00
2019-02-14T21:32:52.121Z,77.40
2019-02-14T21:35:21.310Z,77.50
2019-02-14T21:37:50.484Z,77.30
2019-02-14T21:40:20.077Z,77.30
2019-02-14T21:42:49.897Z,77.60
2019-02-14T21:45:19.076Z,77.50
2019-02-14T21:47:48.243Z,77.60
2019-02-14T21:50:17.425Z,77.60
2019-02-14T21:52:46.655Z,77.70
2019-02-14T21:55:16.539Z,78.00
2019-02-14T21:57:45.928Z,78.40
2019-02-14T22:00:24.016Z,78.60
2019-02-14T22:02:53.255Z,78.60
2019-02-14T22:05:25.225Z,78.50
2019-02-14T22:07:53.389Z,78.60
2019-02-14T22:10:22.557Z,78.70
2019-02-14T22:12:52.022Z,79.00
2019-02-14T22:15:28.746Z,79.20
2019-02-14T22:17:57.934Z,79.60
2019-02-14T22:20:27.104Z,80.00
2019-02-14T22:22:56.301Z,80.00
2019-02-14T22:25:25.477Z,79.90
2019-02-14T22:27:54.664Z,79.50
2019-02-14T22:30:23.828Z,79.80
2019-02-14T22:32:53.001Z,79.80
2019-02-14T22:35:22.261Z,79.70
2019-02-14T22:37:51.417Z,79.70
2019-02-14T22:40:20.609Z,79.60
2019-02-14T22:42:49.764Z,79.40
2019-02-14T22:45:18.948Z,79.30
2019-02-14T22:47:48.112Z,79.30
2019-02-14T22:50:17.293Z,79.30
2019-02-14T22:52:46.478Z,79.20
2019-02-14T22:55:15.677Z,79.30
2019-02-14T22:57:44.846Z,79.30
2019-02-14T23:00:36.364Z,79.30
2019-02-14T23:03:07.410Z,79.40
2019-02-14T23:05:36.737Z,79.80
2019-02-14T23:08:05.897Z,80.00
2019-02-14T23:10:35.392Z,80.00
2019-02-14T23:13:04.564Z,80.10
2019-02-14T23:15:33.733Z,80.30
2019-02-14T23:18:03.093Z,80.60
2019-02-14T23:20:32.283Z,80.90
2019-02-14T23:23:01.448Z,81.40
2019-02-14T23:25:30.640Z,81.90
2019-02-14T23:27:59.799Z,82.30
2019-02-14T23:30:28.979Z,82.80
2019-02-14T23:32:58.149Z,83.00
2019-02-14T23:35:27.347Z,83.10
2019-02-14T23:37:56.607Z,83.20
2019-02-14T23:40:25.814Z,83.40
2019-02-14T23:42:55.040Z,83.30
2019-02-14T23:45:24.301Z,83.20
2019-02-14T23:47:53.478Z,83.20
2019-02-14T23:50:22.659Z,83.10
2019-02-14T23:52:52.916Z,83.00
2019-02-14T23:55:22.076Z,83.00
2019-02-14T23:57:51.264Z,82.90
